createdAt,value
2022-10-13T00:04:13.441Z,100.00
2022-10-13T00:09:14.739Z,100.00
2022-10-13T00:14:16.095Z,100.00
2022-10-13T00:19:17.745Z,100.00
2022-10-13T00:24:19.065Z,100.00
2022-10-13T00:29:20.366Z,100.00
2022-10-13T00:34:21.723Z,100.00
2022-10-13T00:39:23.032Z,100.00
2022-10-13T00:44:43.100Z,100.00
2022-10-13T00:49:44.465Z,100.00
2022-10-13T00:54:46.580Z,100.00
2022-10-13T00:59:48.286Z,100.00
2022-10-13T01:04:50.156Z,100.00
2022-10-13T01:09:51.633Z,100.00
2022-10-13T01:14:55.969Z,100.00
2022-10-13T01:20:36.063Z,100.00
2022-10-13T01:25:52.343Z,100.00
2022-10-13T01:31:05.834Z,100.00
2022-10-13T01:36:09.928Z,100.00
2022-10-13T01:41:21.458Z,100.00
2022-10-13T01:46:31.091Z,100.00
2022-10-13T01:51:33.114Z,100.00
2022-10-13T01:56:34.436Z,100.00
2022-10-13T02:01:50.892Z,100.00
2022-10-13T02:07:04.456Z,100.00
2022-10-13T02:12:09.946Z,100.00
2022-10-13T02:17:11.574Z,100.00
2022-10-13T02:22:14.788Z,100.00
2022-10-13T02:27:16.170Z,100.00
2022-10-13T02:32:17.774Z,100.00
2022-10-13T02:37:19.487Z,100.00
2022-10-13T02:42:21.303Z,100.00
2022-10-13T02:47:22.904Z,100.00
2022-10-13T02:52:24.226Z,100.00
2022-10-13T02:57:25.707Z,100.00
2022-10-13T03:02:27.857Z,100.00
2022-10-13T03:07:29.156Z,100.00
2022-10-13T03:12:30.654Z,100.00
2022-10-13T03:17:31.963Z,100.00
2022-10-13T03:22:33.612Z,100.00
2022-10-13T03:27:34.989Z,100.00
2022-10-13T03:32:36.283Z,100.00
2022-10-13T03:37:37.580Z,100.00
2022-10-13T03:42:39.267Z,100.00
2022-10-13T03:47:40.720Z,100.00
2022-10-13T03:52:42.056Z,100.00
2022-10-13T03:57:43.364Z,100.00
2022-10-13T04:02:44.679Z,100.00
2022-10-13T04:07:45.987Z,100.00
2022-10-13T04:12:48.634Z,100.00
2022-10-13T04:17:49.932Z,100.00
2022-10-13T04:22:51.892Z,100.00
2022-10-13T04:27:53.188Z,100.00
2022-10-13T04:32:54.498Z,100.00
2022-10-13T04:37:57.957Z,100.00
2022-10-13T04:42:59.282Z,100.00
2022-10-13T04:48:00.836Z,100.00
2022-10-13T04:53:02.141Z,100.00
2022-10-13T04:58:03.487Z,100.00
2022-10-13T05:03:04.782Z,100.00
2022-10-13T05:08:06.190Z,100.00
2022-10-13T05:13:07.539Z,100.00
2022-10-13T05:18:08.845Z,100.00
2022-10-13T05:23:10.306Z,100.00
2022-10-13T05:28:11.711Z,100.00
2022-10-13T05:33:13.115Z,100.00
2022-10-13T05:38:14.439Z,100.00
2022-10-13T05:43:15.739Z,100.00
2022-10-13T05:48:17.063Z,100.00
2022-10-13T05:53:18.447Z,100.00
2022-10-13T05:58:19.942Z,100.00
2022-10-13T06:03:23.060Z,100.00
2022-10-13T06:08:24.429Z,100.00
2022-10-13T06:13:26.076Z,100.00
2022-10-13T06:18:27.624Z,100.00
2022-10-13T06:23:28.940Z,100.00
2022-10-13T06:28:30.291Z,100.00
2022-10-13T06:33:32.118Z,100.00
2022-10-13T06:38:33.524Z,100.00
2022-10-13T06:43:40.133Z,100.00
2022-10-13T06:48:42.043Z,100.00
2022-10-13T06:53:43.363Z,100.00
2022-10-13T06:58:44.771Z,100.00
2022-10-13T07:03:49.910Z,100.00
2022-10-13T07:08:51.471Z,100.00
2022-10-13T07:13:54.126Z,100.00
2022-10-13T07:18:55.461Z,100.00
2022-10-13T07:23:56.824Z,100.00
2022-10-13T07:28:58.239Z,100.00
2022-10-13T07:33:59.734Z,100.00
2022-10-13T07:39:02.866Z,100.00
2022-10-13T07:44:04.255Z,100.00
2022-10-13T07:49:05.576Z,100.00
2022-10-13T07:54:07.253Z,100.00
2022-10-13T07:59:08.962Z,100.00
2022-10-13T08:04:10.367Z,100.00
2022-10-13T08:09:12.392Z,100.00
2022-10-13T08:14:13.901Z,100.00
2022-10-13T08:19:16.283Z,100.00
2022-10-13T08:24:18.151Z,100.00
2022-10-13T08:29:22.459Z,100.00
2022-10-13T08:34:25.341Z,98.25
2022-10-13T08:39:26.719Z,94.53
2022-10-13T08:50:00.823Z,82.79
2022-10-13T08:55:02.406Z,86.08
2022-10-13T09:00:05.294Z,74.89
2022-10-13T09:05:11.544Z,80.32
2022-10-13T09:10:14.559Z,85.96
2022-10-13T09:15:17.856Z,88.08
2022-10-13T09:20:21.277Z,86.51
2022-10-13T09:25:22.737Z,81.38
2022-10-13T09:30:41.424Z,79.54
2022-10-13T09:35:47.314Z,83.58
2022-10-13T09:41:07.353Z,86.34
2022-10-13T09:46:18.354Z,86.87
2022-10-13T09:51:29.611Z,87.20
2022-10-13T09:56:36.555Z,88.37
2022-10-13T10:01:40.471Z,91.03
2022-10-13T10:06:42.760Z,92.50
2022-10-13T10:11:45.482Z,91.79
2022-10-13T10:16:50.547Z,90.90
2022-10-13T10:22:04.155Z,91.44
2022-10-13T10:27:15.999Z,91.67
2022-10-13T10:32:29.402Z,89.60
2022-10-13T10:37:46.454Z,88.79
2022-10-13T10:42:51.972Z,85.56
2022-10-13T10:47:56.487Z,78.28
2022-10-13T10:53:00.843Z,73.80
2022-10-13T10:58:07.291Z,76.78
2022-10-13T11:03:29.025Z,76.87
2022-10-13T11:08:30.512Z,66.88
2022-10-13T11:13:50.008Z,70.01
2022-10-13T11:18:54.477Z,73.96
2022-10-13T11:24:01.080Z,72.68
2022-10-13T11:29:03.294Z,73.62
2022-10-13T11:34:24.562Z,75.30
2022-10-13T11:39:28.943Z,75.70
2022-10-13T11:44:45.722Z,72.33
2022-10-13T11:50:03.903Z,71.77
2022-10-13T11:55:10.656Z,70.55
2022-10-13T12:00:16.936Z,65.91
2022-10-13T12:05:25.941Z,64.89
2022-10-13T12:10:32.432Z,66.54
2022-10-13T12:15:41.895Z,66.90
2022-10-13T12:20:43.246Z,68.49
2022-10-13T12:25:47.143Z,69.52
2022-10-13T12:30:59.230Z,72.26
2022-10-13T12:36:33.001Z,74.84
2022-10-13T12:41:36.199Z,76.12
2022-10-13T12:46:37.535Z,78.75
2022-10-13T12:51:39.523Z,80.75
2022-10-13T12:56:42.369Z,82.26
2022-10-13T13:01:44.047Z,81.50
2022-10-13T13:06:56.389Z,81.30
2022-10-13T13:12:04.134Z,81.65
2022-10-13T13:17:07.578Z,82.47
2022-10-13T13:22:09.197Z,82.38
2022-10-13T13:27:18.178Z,84.43
2022-10-13T13:32:20.463Z,77.92
2022-10-13T13:37:27.430Z,79.68
2022-10-13T13:42:29.123Z,78.48
2022-10-13T13:47:30.444Z,81.56
2022-10-13T13:52:31.772Z,82.65
2022-10-13T13:57:33.082Z,82.29
2022-10-13T14:02:34.569Z,83.59
2022-10-13T14:07:36.072Z,90.09
2022-10-13T14:12:37.407Z,86.88
2022-10-13T14:17:38.776Z,90.33
2022-10-13T14:22:40.227Z,93.56
2022-10-13T14:27:41.548Z,96.57
2022-10-13T14:32:42.917Z,98.76
2022-10-13T14:37:44.223Z,99.91
2022-10-13T14:42:45.541Z,100.00
2022-10-13T14:47:46.898Z,100.00
2022-10-13T14:52:48.191Z,100.00
2022-10-13T14:57:49.527Z,100.00
2022-10-13T15:02:50.837Z,100.00
2022-10-13T15:07:52.197Z,100.00
2022-10-13T15:12:53.556Z,100.00
2022-10-13T15:17:54.912Z,100.00
2022-10-13T15:22:56.279Z,100.00
2022-10-13T15:27:57.586Z,100.00
2022-10-13T15:32:58.985Z,100.00
2022-10-13T15:38:00.295Z,100.00
2022-10-13T15:43:01.808Z,100.00
2022-10-13T15:48:04.929Z,100.00
2022-10-13T15:53:06.641Z,100.00
2022-10-13T15:58:12.792Z,100.00
2022-10-13T16:03:17.757Z,100.00
2022-10-13T16:08:19.085Z,100.00
2022-10-13T16:13:20.401Z,100.00
2022-10-13T16:18:21.698Z,100.00
2022-10-13T16:23:23.280Z,100.00
2022-10-13T16:28:24.708Z,100.00
2022-10-13T16:33:26.057Z,100.00
2022-10-13T16:38:27.362Z,100.00
2022-10-13T16:43:29.546Z,100.00
2022-10-13T16:48:31.749Z,100.00
2022-10-13T16:53:33.395Z,100.00
2022-10-13T16:58:35.036Z,100.00
2022-10-13T17:03:37.091Z,100.00
2022-10-13T17:08:38.477Z,100.00
2022-10-13T17:13:39.804Z,100.00
2022-10-13T17:18:41.123Z,100.00
2022-10-13T17:23:48.102Z,100.00
2022-10-13T17:28:49.941Z,100.00
2022-10-13T17:33:51.756Z,100.00
2022-10-13T17:38:54.056Z,100.00
2022-10-13T17:43:55.372Z,100.00
2022-10-13T17:48:57.415Z,100.00
2022-10-13T17:53:59.565Z,100.00
2022-10-13T17:59:02.071Z,100.00
2022-10-13T18:04:08.418Z,100.00
2022-10-13T18:09:14.707Z,100.00
2022-10-13T18:14:16.111Z,100.00
2022-10-13T18:19:17.837Z,100.00
2022-10-13T18:24:19.552Z,100.00
2022-10-13T18:29:20.865Z,100.00
2022-10-13T18:34:23.191Z,100.00
2022-10-13T18:39:28.860Z,100.00
2022-10-13T18:44:30.240Z,100.00
2022-10-13T18:49:31.671Z,100.00
2022-10-13T18:54:33.048Z,100.00
2022-10-13T18:59:38.589Z,100.00
2022-10-13T19:04:40.036Z,100.00
2022-10-13T19:09:41.341Z,100.00
2022-10-13T19:14:43.664Z,100.00
2022-10-13T19:19:46.215Z,100.00
2022-10-13T19:24:47.526Z,100.00
2022-10-13T19:29:51.519Z,100.00
2022-10-13T19:34:52.864Z,100.00
2022-10-13T19:39:54.163Z,100.00
2022-10-13T19:44:55.525Z,100.00
2022-10-13T19:49:56.856Z,100.00
2022-10-13T19:54:58.274Z,100.00
2022-10-13T19:59:59.578Z,100.00
2022-10-13T20:05:00.970Z,100.00
2022-10-13T20:10:02.311Z,100.00
2022-10-13T20:15:03.772Z,100.00
2022-10-13T20:20:05.692Z,100.00
2022-10-13T20:25:07.422Z,100.00
2022-10-13T20:30:09.096Z,100.00
2022-10-13T20:35:10.414Z,100.00
2022-10-13T20:40:11.786Z,100.00
2022-10-13T20:45:13.086Z,100.00
2022-10-13T20:50:14.460Z,100.00
2022-10-13T20:55:15.796Z,100.00
2022-10-13T21:00:17.227Z,100.00
2022-10-13T21:05:18.545Z,100.00
2022-10-13T21:10:19.838Z,100.00
2022-10-13T21:15:21.135Z,100.00
2022-10-13T21:20:22.447Z,100.00
2022-10-13T21:25:23.892Z,100.00
2022-10-13T21:30:25.329Z,100.00
2022-10-13T21:35:26.747Z,100.00
2022-10-13T21:40:28.088Z,100.00
2022-10-13T21:45:29.397Z,100.00
2022-10-13T21:50:30.708Z,100.00
2022-10-13T21:55:33.030Z,100.00
2022-10-13T22:00:34.452Z,100.00
2022-10-13T22:05:35.812Z,100.00
2022-10-13T22:10:37.117Z,100.00
2022-10-13T22:15:38.454Z,100.00
2022-10-13T22:20:39.834Z,100.00
2022-10-13T22:25:45.204Z,100.00
2022-10-13T22:30:46.540Z,100.00
2022-10-13T22:35:47.863Z,100.00
2022-10-13T22:40:49.161Z,100.00
2022-10-13T22:45:51.763Z,100.00
2022-10-13T22:50:53.257Z,100.00
2022-10-13T22:55:54.561Z,100.00
2022-10-13T23:00:55.979Z,100.00
2022-10-13T23:05:57.300Z,100.00
2022-10-13T23:10:58.738Z,100.00
2022-10-13T23:16:00.843Z,100.00
2022-10-13T23:21:09.187Z,100.00
2022-10-13T23:26:11.990Z,100.00
2022-10-13T23:31:14.912Z,100.00
2022-10-13T23:36:17.802Z,100.00
2022-10-13T23:41:19.106Z,100.00
2022-10-13T23:46:20.452Z,100.00
2022-10-13T23:51:23.273Z,100.00
2022-10-13T23:56:24.727Z,100.00
